Bookmark and Share
Track history (hours):
 

Lady Lauren

More information available from US FCC via Universal Licensing System and Coast Guard Vessel Documentation Center.

Last reported at 2014-Apr-20 08:32 UTC. Time now 2014-Apr-21 07:31 UTC.
Position N 29°58' W 091°16'.

Length 22 m.

Type: Towing. MMSI: 367397380.

NotesDate/timePositionNaut miles runAvg speedWind from/ knotsBaromVisibWave heightAir tempDewpointWater temp
2014-Apr-20 08:32N 29°58' W 091°16'5 4.0
2014-Apr-20 07:10N 29°54' W 091°13'2 3.9
2014-Apr-20 06:32N 29°51' W 091°12'4 4.4
2014-Apr-20 05:33N 29°47' W 091°10'2 2.0
2014-Apr-20 04:33N 29°45' W 091°11'0 0.1
2014-Apr-20 03:33N 29°45' W 091°11'5 5.0
2014-Apr-20 02:33N 29°41' W 091°13'2 2.3
2014-Apr-20 01:33N 29°39' W 091°15'9 0.8
2014-Apr-19 14:30N 29°39' W 091°25'7 8.0
2014-Apr-19 13:33N 29°39' W 091°17'7 7.4
2014-Apr-19 12:34N 29°44' W 091°11'2 1.9
2014-Apr-19 11:33N 29°43' W 091°13'4 3.7
2014-Apr-19 10:33N 29°41' W 091°09'7 6.6
2014-Apr-19 09:33N 29°37' W 091°03'5 1.0
2014-Apr-19 04:26N 29°35' W 090°58'6 6.8
2014-Apr-19 03:33N 29°37' W 091°04'7 6.5
2014-Apr-19 02:33N 29°41' W 091°10'4 3.6
2014-Apr-19 01:33N 29°43' W 091°13'1 0.9
2014-Apr-19 00:33N 29°43' W 091°14'4 3.9
2014-Apr-18 23:33N 29°45' W 091°11'3 3.3
2014-Apr-18 22:33N 29°43' W 091°13'2 1.7
2014-Apr-18 21:33N 29°43' W 091°15'4 4.0
2014-Apr-18 20:33N 29°44' W 091°11'2 1.6
2014-Apr-18 19:33N 29°45' W 091°11'3 3.3
2014-Apr-18 18:33N 29°43' W 091°13'2 1.9
2014-Apr-18 17:33N 29°43' W 091°16'2 2.1
2014-Apr-18 16:33N 29°43' W 091°13'3 3.4
2014-Apr-18 15:33N 29°45' W 091°11'3 3.2
2014-Apr-18 14:33N 29°43' W 091°14'1 0.6
2014-Apr-18 13:33N 29°44' W 091°14'3 3.2
2014-Apr-18 12:33N 29°44' W 091°11'1 1.2
2014-Apr-18 11:33N 29°45' W 091°11'6 5.6
2014-Apr-18 10:33N 29°51' W 091°12'  
2014-Apr-16 02:20N 29°51' W 091°12'3 3.4
2014-Apr-16 01:26N 29°48' W 091°10'3 3.7
2014-Apr-16 00:33N 29°45' W 091°11'3 3.5
2014-Apr-15 23:33N 29°43' W 091°13'2 2.2
2014-Apr-15 22:33N 29°40' W 091°14'0 0.0
2014-Apr-15 21:33N 29°40' W 091°14'0 0.0
2014-Apr-15 20:33N 29°40' W 091°14'0 0.0
2014-Apr-15 19:33N 29°40' W 091°14'0 0.0
2014-Apr-15 18:33N 29°40' W 091°14'0 0.0
2014-Apr-15 17:33N 29°40' W 091°14'0 0.0
2014-Apr-15 16:33N 29°40' W 091°14'0 0.0
2014-Apr-15 15:33N 29°40' W 091°14'0 0.0
2014-Apr-15 14:33N 29°40' W 091°14'0 0.0
2014-Apr-15 12:34N 29°40' W 091°14'0 0.0
2014-Apr-15 11:34N 29°40' W 091°14'0 0.0
2014-Apr-15 10:34N 29°40' W 091°14'0 0.0
2014-Apr-15 09:34N 29°40' W 091°14'0 0.0
2014-Apr-15 08:34N 29°40' W 091°14'0 0.0
2014-Apr-15 07:34N 29°40' W 091°14'0 0.0
2014-Apr-15 06:34N 29°40' W 091°14'0 0.0
2014-Apr-15 05:34N 29°40' W 091°14'0 0.0
2014-Apr-15 03:34N 29°40' W 091°14'0 0.0
2014-Apr-15 02:34N 29°40' W 091°14'0 0.0
2014-Apr-15 01:34N 29°40' W 091°14'0 0.0
2014-Apr-15 00:34N 29°40' W 091°14'0 0.1
2014-Apr-14 23:34N 29°40' W 091°14'2 2.1
2014-Apr-14 22:34N 29°39' W 091°16'3 2.6
2014-Apr-14 21:34N 29°38' W 091°19'  

Dump ship's entire track history

sailing weather and tide predictions

Lady Lauren — WDE7767 — position and weather